createdAt,value
2023-08-07T00:01:52.241Z,100178.19
2023-08-07T00:04:18.645Z,100168.22
2023-08-07T00:06:44.991Z,100160.34
2023-08-07T00:09:11.343Z,100170.63
2023-08-07T00:11:37.688Z,100163.81
2023-08-07T00:14:04.126Z,100167.53
2023-08-07T00:16:30.503Z,100163.50
2023-08-07T00:18:57.517Z,100167.06
2023-08-07T00:21:24.479Z,100165.16
2023-08-07T00:23:50.947Z,100160.53
2023-08-07T00:26:17.519Z,100148.63
2023-08-07T00:28:44.712Z,100152.75
2023-08-07T00:31:11.176Z,100151.75
2023-08-07T00:33:37.575Z,100155.69
2023-08-07T00:36:04.239Z,100148.56
2023-08-07T00:38:30.592Z,100153.63
2023-08-07T00:40:56.943Z,100141.59
2023-08-07T00:43:23.292Z,100146.47
2023-08-07T00:45:50.082Z,100143.16
2023-08-07T00:48:17.656Z,100147.53
2023-08-07T00:50:47.561Z,100143.47
2023-08-07T00:53:14.644Z,100146.47
2023-08-07T00:55:41.319Z,100147.13
2023-08-07T00:58:07.653Z,100138.13
2023-08-07T01:00:34.008Z,100144.22
2023-08-07T01:03:00.607Z,100143.47
2023-08-07T01:05:27.420Z,100141.09
2023-08-07T01:07:55.862Z,100147.22
2023-08-07T01:10:34.238Z,100124.47
2023-08-07T01:13:07.566Z,100136.66
2023-08-07T01:15:34.863Z,100132.69
2023-08-07T01:18:01.528Z,100127.31
2023-08-07T01:20:27.889Z,100141.16
2023-08-07T01:22:54.272Z,100133.06
2023-08-07T01:25:20.666Z,100133.38
2023-08-07T01:27:56.082Z,100122.72
2023-08-07T01:30:37.280Z,100119.31
2023-08-07T01:33:14.197Z,100121.00
2023-08-07T01:35:46.544Z,100114.53
2023-08-07T01:38:14.080Z,100116.78
2023-08-07T01:40:40.645Z,100117.31
2023-08-07T01:43:07.037Z,100117.47
2023-08-07T01:45:33.486Z,100116.53
2023-08-07T01:48:00.576Z,100111.53
2023-08-07T01:50:27.083Z,100107.28
2023-08-07T01:52:53.616Z,100111.75
2023-08-07T01:55:21.462Z,100120.28
2023-08-07T01:57:47.819Z,100117.47
2023-08-07T02:00:14.329Z,100115.06
2023-08-07T02:02:40.745Z,100124.19
2023-08-07T02:05:07.594Z,100103.22
2023-08-07T02:07:33.945Z,100110.66
2023-08-07T02:10:00.313Z,100113.72
2023-08-07T02:12:27.874Z,100112.59
2023-08-07T02:14:54.360Z,100112.81
2023-08-07T02:17:22.788Z,100113.84
2023-08-07T02:19:49.159Z,100120.09
2023-08-07T02:22:15.612Z,100118.75
2023-08-07T02:24:42.005Z,100113.88
2023-08-07T02:27:08.371Z,100113.88
2023-08-07T02:29:37.616Z,100114.25
2023-08-07T02:32:04.912Z,100118.94
2023-08-07T02:34:32.156Z,100112.94
2023-08-07T02:37:02.114Z,100105.38
2023-08-07T02:39:28.465Z,100104.03
2023-08-07T02:41:54.809Z,100106.59
2023-08-07T02:44:21.752Z,100107.38
2023-08-07T02:46:48.215Z,100108.16
2023-08-07T02:49:14.559Z,100101.88
2023-08-07T02:51:40.950Z,100102.69
2023-08-07T02:54:07.339Z,100089.47
2023-08-07T02:56:34.007Z,100102.44
2023-08-07T02:59:02.534Z,100094.53
2023-08-07T03:01:29.661Z,100095.38
2023-08-07T03:03:56.004Z,100094.38
2023-08-07T03:06:22.397Z,100091.16
2023-08-07T03:08:48.749Z,100101.13
2023-08-07T03:11:15.105Z,100104.22
2023-08-07T03:13:43.065Z,100098.50
2023-08-07T03:16:09.749Z,100094.81
2023-08-07T03:18:36.980Z,100102.19
2023-08-07T03:21:03.435Z,100091.22
2023-08-07T03:23:30.220Z,100095.97
2023-08-07T03:28:39.861Z,100096.19
2023-08-07T03:31:06.791Z,100104.03
2023-08-07T03:33:33.349Z,100090.41
2023-08-07T03:35:59.706Z,100096.88
2023-08-07T03:38:26.709Z,100081.34
2023-08-07T03:40:53.065Z,100093.34
2023-08-07T03:43:19.448Z,100080.88
2023-08-07T03:45:45.835Z,100077.81
2023-08-07T03:48:12.201Z,100087.75
2023-08-07T03:50:38.779Z,100080.31
2023-08-07T03:53:08.136Z,100086.16
2023-08-07T03:55:35.565Z,100086.91
2023-08-07T03:58:02.246Z,100082.66
2023-08-07T04:00:28.826Z,100081.22
2023-08-07T04:02:55.320Z,100086.34
2023-08-07T04:05:21.720Z,100076.16
2023-08-07T04:07:48.121Z,100065.94
2023-08-07T04:10:14.547Z,100068.94
2023-08-07T04:12:40.956Z,100073.53
2023-08-07T04:15:07.966Z,100067.06
2023-08-07T04:17:34.375Z,100063.44
2023-08-07T04:20:00.811Z,100060.88
2023-08-07T04:22:27.210Z,100066.47
2023-08-07T04:24:53.569Z,100059.31
2023-08-07T04:27:19.921Z,100065.00
2023-08-07T04:29:46.320Z,100070.03
2023-08-07T04:32:12.681Z,100058.38
2023-08-07T04:34:39.075Z,100064.56
2023-08-07T04:37:06.360Z,100067.91
2023-08-07T04:39:33.245Z,100063.47
2023-08-07T04:41:59.618Z,100058.09
2023-08-07T04:44:26.075Z,100068.13
2023-08-07T04:46:53.510Z,100065.50
2023-08-07T04:49:20.144Z,100075.63
2023-08-07T04:51:46.497Z,100066.28
2023-08-07T04:54:12.852Z,100071.25
2023-08-07T04:56:39.232Z,100054.53
2023-08-07T04:59:05.593Z,100068.63
2023-08-07T05:01:31.948Z,100067.66
2023-08-07T05:03:59.030Z,100064.03
2023-08-07T05:06:25.696Z,100069.06
2023-08-07T05:08:52.042Z,100071.75
2023-08-07T05:11:18.425Z,100063.84
2023-08-07T05:13:44.765Z,100063.03
2023-08-07T05:16:11.137Z,100067.41
2023-08-07T05:18:37.623Z,100056.91
2023-08-07T05:21:04.158Z,100053.72
2023-08-07T05:23:30.545Z,100045.34
2023-08-07T05:25:57.033Z,100037.41
2023-08-07T05:28:23.390Z,100039.13
2023-08-07T05:30:49.825Z,100047.94
2023-08-07T05:33:16.608Z,100048.41
2023-08-07T05:35:43.607Z,100049.16
2023-08-07T05:38:09.999Z,100053.53
2023-08-07T05:40:37.723Z,100056.63
2023-08-07T05:43:04.152Z,100056.75
2023-08-07T05:45:30.547Z,100060.22
2023-08-07T05:47:56.930Z,100064.06
2023-08-07T05:50:23.298Z,100064.69
2023-08-07T05:52:49.661Z,100060.59
2023-08-07T05:55:16.036Z,100055.78
2023-08-07T05:57:42.469Z,100043.81
2023-08-07T06:00:14.913Z,100047.44
2023-08-07T06:02:41.331Z,100046.44
2023-08-07T06:05:08.334Z,100056.19
2023-08-07T06:07:34.752Z,100044.91
2023-08-07T06:10:01.132Z,100045.00
2023-08-07T06:12:27.466Z,100050.50
2023-08-07T06:14:53.862Z,100053.69
2023-08-07T06:17:20.356Z,100055.03
2023-08-07T06:19:46.816Z,100048.72
2023-08-07T06:22:13.162Z,100050.50
2023-08-07T06:24:39.511Z,100059.69
2023-08-07T06:27:06.194Z,100058.72
2023-08-07T06:29:32.544Z,100054.41
2023-08-07T06:31:59.138Z,100059.56
2023-08-07T06:34:25.707Z,100057.97
2023-08-07T06:36:52.220Z,100052.59
2023-08-07T06:39:18.598Z,100066.59
2023-08-07T06:41:44.987Z,100056.19
2023-08-07T06:44:11.380Z,100056.56
2023-08-07T06:46:37.733Z,100061.50
2023-08-07T06:49:04.175Z,100053.25
2023-08-07T06:51:30.621Z,100058.25
2023-08-07T06:53:57.042Z,100059.84
2023-08-07T06:56:23.399Z,100049.50
2023-08-07T06:58:49.845Z,100051.28
2023-08-07T07:01:16.271Z,100053.88
2023-08-07T07:03:42.693Z,100046.19
2023-08-07T07:06:09.575Z,100049.34
2023-08-07T07:08:35.940Z,100046.94
2023-08-07T07:11:02.407Z,100061.09
2023-08-07T07:13:28.804Z,100072.00
2023-08-07T07:15:56.099Z,100068.81
2023-08-07T07:18:22.640Z,100068.34
2023-08-07T07:20:49.043Z,100054.59
2023-08-07T07:23:15.405Z,100043.69
2023-08-07T07:25:41.757Z,100056.94
2023-08-07T07:28:08.103Z,100068.28
2023-08-07T07:30:34.492Z,100057.16
2023-08-07T07:33:00.917Z,100065.53
2023-08-07T07:35:28.477Z,100068.34
2023-08-07T07:37:54.835Z,100059.06
2023-08-07T07:40:21.236Z,100058.00
2023-08-07T07:42:47.568Z,100061.03
2023-08-07T07:45:13.938Z,100068.38
2023-08-07T07:47:40.281Z,100066.56
2023-08-07T07:50:09.888Z,100072.00
2023-08-07T07:52:36.252Z,100066.59
2023-08-07T07:55:03.073Z,100075.72
2023-08-07T07:57:29.538Z,100070.81
2023-08-07T07:59:55.985Z,100075.25
2023-08-07T08:02:23.516Z,100090.44
2023-08-07T08:04:50.134Z,100089.72
2023-08-07T08:07:16.645Z,100081.69
2023-08-07T08:09:43.089Z,100098.84
2023-08-07T08:12:09.851Z,100095.94
2023-08-07T08:14:50.501Z,100092.72
2023-08-07T08:17:21.924Z,100091.91
2023-08-07T08:19:50.916Z,100092.44
2023-08-07T08:22:17.992Z,100097.44
2023-08-07T08:24:44.328Z,100099.22
2023-08-07T08:27:10.764Z,100105.13
2023-08-07T08:29:37.239Z,100104.97
2023-08-07T08:32:03.744Z,100090.84
2023-08-07T08:34:30.315Z,100103.00
2023-08-07T08:36:56.814Z,100102.38
2023-08-07T08:39:23.427Z,100113.00
2023-08-07T08:41:50.989Z,100104.44
2023-08-07T08:44:18.318Z,100107.88
2023-08-07T08:46:45.492Z,100114.56
2023-08-07T08:49:12.256Z,100114.03
2023-08-07T08:51:38.616Z,100117.47
2023-08-07T08:54:05.038Z,100112.47
2023-08-07T08:56:32.236Z,100122.41
2023-08-07T08:58:59.008Z,100126.69
2023-08-07T09:01:26.823Z,100110.06
2023-08-07T09:03:54.855Z,100118.31
2023-08-07T09:06:21.409Z,100122.91
2023-08-07T09:08:48.378Z,100115.78
2023-08-07T09:11:14.864Z,100130.47
2023-08-07T09:13:41.836Z,100124.81
2023-08-07T09:16:09.868Z,100124.50
2023-08-07T09:18:36.674Z,100119.13
2023-08-07T09:21:03.355Z,100116.38
2023-08-07T09:23:29.869Z,100129.72
2023-08-07T09:26:06.410Z,100119.66
2023-08-07T09:28:33.559Z,100125.97
2023-08-07T09:31:00.322Z,100133.22
2023-08-07T09:33:28.027Z,100122.97
2023-08-07T09:35:59.148Z,100127.72
2023-08-07T09:38:29.292Z,100119.28
2023-08-07T09:40:58.889Z,100125.66
2023-08-07T09:43:25.297Z,100110.44
2023-08-07T09:45:51.785Z,100129.56
2023-08-07T09:48:29.056Z,100129.94
2023-08-07T09:50:59.772Z,100139.53
2023-08-07T09:53:27.736Z,100129.75
2023-08-07T09:55:54.572Z,100132.56
2023-08-07T09:58:20.994Z,100128.50
2023-08-07T10:00:49.154Z,100149.47
2023-08-07T10:03:15.905Z,100159.56
2023-08-07T10:05:43.476Z,100149.91
2023-08-07T10:08:11.573Z,100160.03
2023-08-07T10:10:38.487Z,100170.75
2023-08-07T10:13:05.782Z,100159.09
2023-08-07T10:15:33.613Z,100168.03
2023-08-07T10:18:00.187Z,100160.31
2023-08-07T10:20:28.732Z,100163.31
2023-08-07T10:22:58.584Z,100158.75
2023-08-07T10:25:25.379Z,100150.78
2023-08-07T10:27:53.764Z,100148.03
2023-08-07T10:30:21.324Z,100149.59
2023-08-07T10:32:49.453Z,100146.47
2023-08-07T10:35:26.464Z,100154.91
2023-08-07T10:37:54.913Z,100165.06
2023-08-07T10:40:22.386Z,100158.91
2023-08-07T10:42:55.842Z,100167.25
2023-08-07T10:45:23.922Z,100154.38
2023-08-07T10:48:03.192Z,100154.41
2023-08-07T10:50:31.475Z,100164.38
2023-08-07T10:52:58.185Z,100144.56
2023-08-07T10:55:25.533Z,100151.81
2023-08-07T10:57:51.901Z,100154.31
2023-08-07T11:00:18.864Z,100159.50
2023-08-07T11:02:49.185Z,100166.22
2023-08-07T11:05:15.662Z,100153.44
2023-08-07T11:07:42.746Z,100172.56
2023-08-07T11:10:09.735Z,100179.94
2023-08-07T11:12:37.357Z,100165.59
2023-08-07T11:15:04.017Z,100181.09
2023-08-07T11:17:30.617Z,100186.88
2023-08-07T11:19:57.449Z,100195.53
2023-08-07T11:22:24.023Z,100192.28
2023-08-07T11:24:51.861Z,100204.13
2023-08-07T11:27:18.270Z,100204.88
2023-08-07T11:29:49.152Z,100202.88
2023-08-07T11:32:15.737Z,100217.19
2023-08-07T11:34:49.237Z,100188.69
2023-08-07T11:37:18.961Z,100208.94
2023-08-07T11:39:45.648Z,100181.13
2023-08-07T11:42:12.108Z,100199.59
2023-08-07T11:44:38.474Z,100195.31
2023-08-07T11:47:05.765Z,100177.78
2023-08-07T11:49:33.165Z,100191.03
2023-08-07T11:51:59.613Z,100199.50
2023-08-07T11:54:27.135Z,100199.28
2023-08-07T11:56:53.468Z,100189.75
2023-08-07T11:59:20.083Z,100181.41
2023-08-07T12:01:46.993Z,100199.47
2023-08-07T12:04:14.281Z,100182.19
2023-08-07T12:06:54.038Z,100190.50
2023-08-07T12:09:20.566Z,100194.28
2023-08-07T12:11:46.920Z,100183.97
2023-08-07T12:14:18.199Z,100181.69
2023-08-07T12:16:46.791Z,100178.06
2023-08-07T12:19:14.001Z,100178.44
2023-08-07T12:21:40.513Z,100189.25
2023-08-07T12:24:08.405Z,100208.69
2023-08-07T12:26:34.830Z,100193.03
2023-08-07T12:29:02.303Z,100196.44
2023-08-07T12:31:28.705Z,100203.06
2023-08-07T12:33:55.835Z,100190.78
2023-08-07T12:36:22.447Z,100219.63
2023-08-07T12:38:49.098Z,100198.53
2023-08-07T12:43:45.002Z,100200.41
2023-08-07T12:48:40.596Z,100208.97
2023-08-07T12:51:06.997Z,100207.84
2023-08-07T12:53:33.420Z,100199.34
2023-08-07T12:55:59.856Z,100210.59
2023-08-07T12:58:28.736Z,100226.75
2023-08-07T13:00:55.325Z,100220.66
2023-08-07T13:03:22.122Z,100209.75
2023-08-07T13:05:48.568Z,100200.50
2023-08-07T13:08:15.311Z,100215.69
2023-08-07T13:10:41.669Z,100221.59
2023-08-07T13:13:08.068Z,100216.28
2023-08-07T13:15:34.533Z,100221.50
2023-08-07T13:18:01.787Z,100218.69
2023-08-07T13:20:28.394Z,100219.88
2023-08-07T13:22:54.824Z,100219.03
2023-08-07T13:25:21.525Z,100224.63
2023-08-07T13:27:47.913Z,100239.44
2023-08-07T13:30:14.343Z,100235.47
2023-08-07T13:32:41.161Z,100232.25
2023-08-07T13:35:07.954Z,100252.03
2023-08-07T13:37:34.720Z,100261.72
2023-08-07T13:40:01.288Z,100256.63
2023-08-07T13:42:28.587Z,100273.88
2023-08-07T13:44:56.763Z,100264.97
2023-08-07T13:47:23.257Z,100264.44
2023-08-07T13:49:49.706Z,100265.78
2023-08-07T13:52:16.488Z,100280.63
2023-08-07T13:54:43.019Z,100289.81
2023-08-07T13:57:09.369Z,100299.72
2023-08-07T13:59:35.734Z,100306.81
2023-08-07T14:02:02.317Z,100295.00
2023-08-07T14:04:28.795Z,100307.91
2023-08-07T14:06:55.146Z,100306.06
2023-08-07T14:09:23.059Z,100319.31
2023-08-07T14:11:50.462Z,100314.56
2023-08-07T14:14:17.198Z,100315.41
2023-08-07T14:16:44.173Z,100308.13
2023-08-07T14:19:10.805Z,100321.19
2023-08-07T14:21:37.212Z,100332.31
2023-08-07T14:24:03.868Z,100329.34
2023-08-07T14:26:30.375Z,100329.75
2023-08-07T14:28:56.738Z,100333.75
2023-08-07T14:31:23.194Z,100320.28
2023-08-07T14:33:50.003Z,100338.41
2023-08-07T14:36:16.794Z,100354.44
2023-08-07T14:38:43.219Z,100368.97
2023-08-07T14:41:09.633Z,100362.81
2023-08-07T14:43:36.131Z,100370.72
2023-08-07T14:46:02.614Z,100389.38
2023-08-07T14:48:29.185Z,100377.84
2023-08-07T14:50:57.222Z,100377.97
2023-08-07T14:53:23.793Z,100378.75
2023-08-07T14:55:50.209Z,100382.59
2023-08-07T14:58:16.549Z,100378.41
2023-08-07T15:00:43.056Z,100369.88
2023-08-07T15:03:09.492Z,100376.34
2023-08-07T15:05:35.977Z,100379.38
2023-08-07T15:08:02.886Z,100380.59
2023-08-07T15:10:29.777Z,100386.38
2023-08-07T15:12:57.069Z,100392.84
2023-08-07T15:15:23.770Z,100396.31
2023-08-07T15:17:50.220Z,100374.50
2023-08-07T15:20:16.825Z,100399.47
2023-08-07T15:22:43.215Z,100400.22
2023-08-07T15:25:09.933Z,100392.47
2023-08-07T15:27:36.305Z,100392.97
2023-08-07T15:30:03.005Z,100382.91
2023-08-07T15:32:29.385Z,100386.75
2023-08-07T15:34:55.777Z,100383.50
2023-08-07T15:37:22.126Z,100388.00
2023-08-07T15:39:48.498Z,100390.66
2023-08-07T15:42:14.857Z,100395.97
2023-08-07T15:44:41.287Z,100423.13
2023-08-07T15:47:07.703Z,100414.22
2023-08-07T15:49:34.123Z,100413.59
2023-08-07T15:52:00.508Z,100414.13
2023-08-07T15:54:26.918Z,100418.22
2023-08-07T15:56:53.462Z,100410.97
2023-08-07T15:59:19.862Z,100413.50
2023-08-07T16:01:46.252Z,100412.38
2023-08-07T16:04:12.866Z,100416.13
2023-08-07T16:06:40.871Z,100413.22
2023-08-07T16:09:08.935Z,100413.19
2023-08-07T16:11:35.368Z,100428.44
2023-08-07T16:14:01.847Z,100413.41
2023-08-07T16:16:28.380Z,100415.00
2023-08-07T16:18:54.892Z,100395.50
2023-08-07T16:21:21.286Z,100427.97
2023-08-07T16:23:47.663Z,100420.22
2023-08-07T16:26:14.080Z,100395.41
2023-08-07T16:28:40.501Z,100405.09
2023-08-07T16:31:06.884Z,100407.56
2023-08-07T16:33:33.291Z,100404.63
2023-08-07T16:36:00.172Z,100416.44
2023-08-07T16:38:26.540Z,100418.63
2023-08-07T16:40:52.888Z,100418.66
2023-08-07T16:43:19.240Z,100423.63
2023-08-07T16:45:45.640Z,100416.00
2023-08-07T16:48:12.531Z,100427.31
2023-08-07T16:50:39.493Z,100427.84
2023-08-07T16:53:08.039Z,100421.16
2023-08-07T16:55:34.411Z,100420.56
2023-08-07T16:58:00.782Z,100423.72
2023-08-07T17:00:27.179Z,100411.41
2023-08-07T17:02:53.612Z,100410.06
2023-08-07T17:05:23.017Z,100426.44
2023-08-07T17:07:49.416Z,100417.47
2023-08-07T17:10:17.299Z,100405.44
2023-08-07T17:12:43.949Z,100415.66
2023-08-07T17:15:10.732Z,100413.66
2023-08-07T17:17:37.272Z,100410.22
2023-08-07T17:20:04.976Z,100426.66
2023-08-07T17:22:31.588Z,100412.72
2023-08-07T17:24:59.252Z,100413.16
2023-08-07T17:27:25.636Z,100394.75
2023-08-07T17:29:52.128Z,100409.13
2023-08-07T17:32:18.561Z,100408.06
2023-08-07T17:34:44.976Z,100402.69
2023-08-07T17:37:11.389Z,100403.03
2023-08-07T17:39:37.762Z,100398.47
2023-08-07T17:42:04.551Z,100385.84
2023-08-07T17:44:33.996Z,100369.84
2023-08-07T17:47:00.996Z,100374.56
2023-08-07T17:49:29.083Z,100380.44
2023-08-07T17:51:55.669Z,100376.63
2023-08-07T17:54:22.134Z,100361.28
2023-08-07T17:56:50.029Z,100372.47
2023-08-07T17:59:16.458Z,100368.59
2023-08-07T18:01:42.881Z,100371.06
2023-08-07T18:04:10.140Z,100384.44
2023-08-07T18:06:36.622Z,100380.94
2023-08-07T18:09:03.055Z,100369.91
2023-08-07T18:11:29.507Z,100388.50
2023-08-07T18:13:56.000Z,100382.97
2023-08-07T18:16:24.001Z,100389.25
2023-08-07T18:18:50.504Z,100393.31
2023-08-07T18:21:18.797Z,100400.53
2023-08-07T18:23:45.143Z,100389.50
2023-08-07T18:26:11.656Z,100411.66
2023-08-07T18:28:39.423Z,100415.69
2023-08-07T18:31:07.007Z,100403.03
2023-08-07T18:33:34.549Z,100387.66
2023-08-07T18:36:01.343Z,100396.94
2023-08-07T18:38:28.152Z,100407.88
2023-08-07T18:40:54.625Z,100412.97
2023-08-07T18:43:21.109Z,100401.28
2023-08-07T18:45:47.551Z,100398.66
2023-08-07T18:48:14.046Z,100395.81
2023-08-07T18:50:41.979Z,100406.25
2023-08-07T18:53:09.040Z,100397.88
2023-08-07T18:55:35.457Z,100403.94
2023-08-07T18:58:02.265Z,100391.44
2023-08-07T19:00:28.628Z,100397.41
2023-08-07T19:02:55.120Z,100397.91
2023-08-07T19:05:21.567Z,100401.69
2023-08-07T19:07:47.910Z,100406.88
2023-08-07T19:10:14.317Z,100401.00
2023-08-07T19:12:40.695Z,100401.41
2023-08-07T19:15:09.510Z,100399.09
2023-08-07T19:17:35.898Z,100408.03
2023-08-07T19:20:02.397Z,100415.16
2023-08-07T19:22:28.848Z,100405.00
2023-08-07T19:24:55.212Z,100397.31
2023-08-07T19:27:21.576Z,100411.97
2023-08-07T19:29:47.926Z,100419.44
2023-08-07T19:32:15.400Z,100431.84
2023-08-07T19:34:41.794Z,100459.44
2023-08-07T19:37:08.300Z,100447.91
2023-08-07T19:39:34.721Z,100434.00
2023-08-07T19:42:01.174Z,100427.25
2023-08-07T19:44:27.680Z,100427.13
2023-08-07T19:46:54.112Z,100436.75
2023-08-07T19:49:20.450Z,100432.44
2023-08-07T19:51:47.034Z,100430.72
2023-08-07T19:54:13.440Z,100434.94
2023-08-07T19:56:39.819Z,100434.78
2023-08-07T19:59:06.452Z,100440.88
2023-08-07T20:01:33.127Z,100440.78
2023-08-07T20:04:00.054Z,100427.69
2023-08-07T20:06:26.636Z,100427.66
2023-08-07T20:08:53.064Z,100431.16
2023-08-07T20:11:19.431Z,100438.78
2023-08-07T20:13:46.303Z,100443.56
2023-08-07T20:16:12.809Z,100426.19
2023-08-07T20:18:39.320Z,100436.53
2023-08-07T20:21:05.679Z,100438.47
2023-08-07T20:23:32.007Z,100429.53
2023-08-07T20:25:58.658Z,100427.06
2023-08-07T20:28:25.036Z,100417.25
2023-08-07T20:30:51.521Z,100429.56
2023-08-07T20:33:18.124Z,100430.22
2023-08-07T20:35:44.566Z,100432.03
2023-08-07T20:38:10.944Z,100433.09
2023-08-07T20:40:37.378Z,100433.25
2023-08-07T20:43:03.906Z,100421.81
2023-08-07T20:45:30.288Z,100423.22
2023-08-07T20:47:56.671Z,100425.53
2023-08-07T20:50:23.098Z,100419.28
2023-08-07T20:52:49.510Z,100431.00
2023-08-07T20:55:15.871Z,100433.69
2023-08-07T20:57:42.275Z,100429.59
2023-08-07T21:00:09.827Z,100432.41
2023-08-07T21:02:36.273Z,100426.09
2023-08-07T21:05:02.714Z,100437.16
2023-08-07T21:07:29.234Z,100437.97
2023-08-07T21:09:55.660Z,100426.47
2023-08-07T21:12:21.999Z,100429.31
2023-08-07T21:14:48.354Z,100417.56
2023-08-07T21:17:15.165Z,100422.72
2023-08-07T21:19:41.799Z,100417.94
2023-08-07T21:22:08.462Z,100405.00
2023-08-07T21:24:35.548Z,100411.56
2023-08-07T21:27:02.049Z,100411.28
2023-08-07T21:29:28.699Z,100409.00
2023-08-07T21:31:55.636Z,100407.44
2023-08-07T21:34:22.333Z,100407.63
2023-08-07T21:36:49.024Z,100394.72
2023-08-07T21:39:15.807Z,100398.41
2023-08-07T21:41:42.138Z,100401.47
2023-08-07T21:44:08.527Z,100403.34
2023-08-07T21:46:34.908Z,100400.78
2023-08-07T21:49:01.685Z,100391.19
2023-08-07T21:51:29.512Z,100406.44
2023-08-07T21:53:55.923Z,100394.72
2023-08-07T21:56:22.281Z,100399.16
2023-08-07T21:58:48.885Z,100385.34
2023-08-07T22:01:15.253Z,100380.03
2023-08-07T22:03:41.731Z,100380.66
2023-08-07T22:06:08.163Z,100385.75
2023-08-07T22:08:34.498Z,100389.44
2023-08-07T22:11:01.504Z,100376.22
2023-08-07T22:13:27.853Z,100381.41
2023-08-07T22:15:54.726Z,100378.25
2023-08-07T22:18:21.224Z,100359.63
2023-08-07T22:20:47.629Z,100383.31
2023-08-07T22:23:14.142Z,100376.00
2023-08-07T22:25:40.507Z,100374.34
2023-08-07T22:28:08.016Z,100373.31
2023-08-07T22:30:35.022Z,100375.50
2023-08-07T22:33:03.587Z,100370.00
2023-08-07T22:35:31.004Z,100370.94
2023-08-07T22:37:57.839Z,100364.97
2023-08-07T22:40:24.262Z,100366.31
2023-08-07T22:42:50.654Z,100357.97
2023-08-07T22:45:17.091Z,100376.88
2023-08-07T22:47:43.445Z,100372.19
2023-08-07T22:50:10.028Z,100376.94
2023-08-07T22:52:36.377Z,100379.13
2023-08-07T22:55:03.694Z,100372.38
2023-08-07T22:57:30.061Z,100373.28
2023-08-07T22:59:56.945Z,100358.50
2023-08-07T23:02:23.376Z,100366.09
2023-08-07T23:04:49.755Z,100370.16
2023-08-07T23:07:16.880Z,100361.69
2023-08-07T23:09:43.241Z,100361.16
2023-08-07T23:12:10.069Z,100358.22
2023-08-07T23:14:36.417Z,100357.38
2023-08-07T23:17:05.121Z,100343.44
2023-08-07T23:19:32.264Z,100350.03
2023-08-07T23:21:59.006Z,100345.28
2023-08-07T23:24:25.531Z,100353.75
2023-08-07T23:26:51.888Z,100340.25
2023-08-07T23:29:18.372Z,100351.75
2023-08-07T23:31:44.747Z,100356.06
2023-08-07T23:34:11.217Z,100352.56
2023-08-07T23:36:37.563Z,100354.53
2023-08-07T23:39:04.026Z,100347.34
2023-08-07T23:41:30.395Z,100353.06
2023-08-07T23:43:56.767Z,100348.97
2023-08-07T23:46:23.221Z,100348.94
2023-08-07T23:48:49.842Z,100349.69
2023-08-07T23:51:16.194Z,100349.69
2023-08-07T23:53:42.562Z,100355.69
2023-08-07T23:56:09.011Z,100350.84
2023-08-07T23:58:35.531Z,100345.63
